sensor_id;sensor_type;location;lat;lon;timestamp;P1;durP1;ratioP1;P2;durP2;ratioP2
26820;SDS011;37186;51.394;5.454;2022-11-04T00:00:38;3.53;;;3.43;;
26820;SDS011;37186;51.394;5.454;2022-11-04T00:03:38;3.67;;;3.57;;
26820;SDS011;37186;51.394;5.454;2022-11-04T00:06:39;3.43;;;3.33;;
26820;SDS011;37186;51.394;5.454;2022-11-04T00:09:40;3.87;;;3.77;;
26820;SDS011;37186;51.394;5.454;2022-11-04T00:12:40;3.67;;;3.57;;
26820;SDS011;37186;51.394;5.454;2022-11-04T00:15:41;3.70;;;3.60;;
26820;SDS011;37186;51.394;5.454;2022-11-04T00:19:00;3.47;;;3.37;;
26820;SDS011;37186;51.394;5.454;2022-11-04T00:22:01;3.63;;;3.53;;
26820;SDS011;37186;51.394;5.454;2022-11-04T00:25:20;3.80;;;3.70;;
26820;SDS011;37186;51.394;5.454;2022-11-04T00:28:39;3.47;;;3.37;;
26820;SDS011;37186;51.394;5.454;2022-11-04T00:31:42;3.63;;;3.53;;
26820;SDS011;37186;51.394;5.454;2022-11-04T00:35:02;3.50;;;3.40;;
26820;SDS011;37186;51.394;5.454;2022-11-04T00:38:03;3.73;;;3.63;;
26820;SDS011;37186;51.394;5.454;2022-11-04T00:41:03;3.67;;;3.57;;
26820;SDS011;37186;51.394;5.454;2022-11-04T00:44:24;3.70;;;3.60;;
26820;SDS011;37186;51.394;5.454;2022-11-04T00:47:24;3.50;;;3.40;;
26820;SDS011;37186;51.394;5.454;2022-11-04T00:50:25;3.30;;;3.20;;
26820;SDS011;37186;51.394;5.454;2022-11-04T00:53:25;3.50;;;3.40;;
26820;SDS011;37186;51.394;5.454;2022-11-04T00:56:26;3.37;;;3.27;;
26820;SDS011;37186;51.394;5.454;2022-11-04T00:59:26;3.40;;;3.30;;
26820;SDS011;37186;51.394;5.454;2022-11-04T01:02:27;3.30;;;3.20;;
26820;SDS011;37186;51.394;5.454;2022-11-04T01:05:27;3.37;;;3.27;;
26820;SDS011;37186;51.394;5.454;2022-11-04T01:08:28;3.40;;;3.30;;
26820;SDS011;37186;51.394;5.454;2022-11-04T01:11:29;3.40;;;3.30;;
26820;SDS011;37186;51.394;5.454;2022-11-04T01:14:30;3.27;;;3.17;;
26820;SDS011;37186;51.394;5.454;2022-11-04T01:17:30;3.43;;;3.33;;
26820;SDS011;37186;51.394;5.454;2022-11-04T01:20:31;3.40;;;3.30;;
26820;SDS011;37186;51.394;5.454;2022-11-04T01:23:33;3.20;;;3.10;;
26820;SDS011;37186;51.394;5.454;2022-11-04T01:26:34;3.30;;;3.20;;
26820;SDS011;37186;51.394;5.454;2022-11-04T01:29:35;3.50;;;3.40;;
26820;SDS011;37186;51.394;5.454;2022-11-04T01:32:35;3.27;;;3.17;;
26820;SDS011;37186;51.394;5.454;2022-11-04T01:35:36;3.50;;;3.40;;
26820;SDS011;37186;51.394;5.454;2022-11-04T01:38:36;3.33;;;3.23;;
26820;SDS011;37186;51.394;5.454;2022-11-04T01:41:37;3.27;;;3.17;;
26820;SDS011;37186;51.394;5.454;2022-11-04T01:47:42;3.40;;;3.30;;
26820;SDS011;37186;51.394;5.454;2022-11-04T01:50:49;3.40;;;3.30;;
26820;SDS011;37186;51.394;5.454;2022-11-04T01:53:52;3.40;;;3.30;;
26820;SDS011;37186;51.394;5.454;2022-11-04T01:56:55;3.40;;;3.30;;
26820;SDS011;37186;51.394;5.454;2022-11-04T01:59:57;3.50;;;3.40;;
26820;SDS011;37186;51.394;5.454;2022-11-04T02:06:19;3.10;;;3.00;;
26820;SDS011;37186;51.394;5.454;2022-11-04T02:09:21;3.20;;;3.10;;
26820;SDS011;37186;51.394;5.454;2022-11-04T02:12:23;3.30;;;3.20;;
26820;SDS011;37186;51.394;5.454;2022-11-04T02:15:47;3.20;;;3.10;;
26820;SDS011;37186;51.394;5.454;2022-11-04T02:18:59;3.50;;;3.40;;
26820;SDS011;37186;51.394;5.454;2022-11-04T02:32:40;3.40;;;3.30;;
26820;SDS011;37186;51.394;5.454;2022-11-04T02:36:04;3.47;;;3.37;;
26820;SDS011;37186;51.394;5.454;2022-11-04T02:42:38;3.30;;;3.20;;
26820;SDS011;37186;51.394;5.454;2022-11-04T02:49:11;3.10;;;3.00;;
26820;SDS011;37186;51.394;5.454;2022-11-04T02:52:20;3.37;;;3.27;;
26820;SDS011;37186;51.394;5.454;2022-11-04T02:55:41;3.30;;;3.20;;
26820;SDS011;37186;51.394;5.454;2022-11-04T02:58:47;3.10;;;3.00;;
26820;SDS011;37186;51.394;5.454;2022-11-04T03:01:53;3.40;;;3.30;;
26820;SDS011;37186;51.394;5.454;2022-11-04T03:04:56;3.30;;;3.20;;
26820;SDS011;37186;51.394;5.454;2022-11-04T03:08:00;3.40;;;3.30;;
26820;SDS011;37186;51.394;5.454;2022-11-04T03:11:06;3.27;;;3.17;;
26820;SDS011;37186;51.394;5.454;2022-11-04T03:14:12;3.30;;;3.20;;
26820;SDS011;37186;51.394;5.454;2022-11-04T03:17:19;3.43;;;3.33;;
26820;SDS011;37186;51.394;5.454;2022-11-04T03:20:35;3.50;;;3.40;;
26820;SDS011;37186;51.394;5.454;2022-11-04T03:23:39;3.60;;;3.50;;
26820;SDS011;37186;51.394;5.454;2022-11-04T03:26:41;3.50;;;3.40;;
26820;SDS011;37186;51.394;5.454;2022-11-04T03:33:24;3.30;;;3.20;;
26820;SDS011;37186;51.394;5.454;2022-11-04T03:36:32;3.40;;;3.30;;
26820;SDS011;37186;51.394;5.454;2022-11-04T03:39:33;3.20;;;3.10;;
26820;SDS011;37186;51.394;5.454;2022-11-04T03:42:35;3.37;;;3.27;;
26820;SDS011;37186;51.394;5.454;2022-11-04T03:45:40;3.30;;;3.20;;
26820;SDS011;37186;51.394;5.454;2022-11-04T03:48:42;3.40;;;3.30;;
26820;SDS011;37186;51.394;5.454;2022-11-04T03:51:45;3.40;;;3.30;;
26820;SDS011;37186;51.394;5.454;2022-11-04T03:54:46;3.40;;;3.30;;
26820;SDS011;37186;51.394;5.454;2022-11-04T04:01:12;3.20;;;3.10;;
26820;SDS011;37186;51.394;5.454;2022-11-04T04:04:28;3.43;;;3.33;;
26820;SDS011;37186;51.394;5.454;2022-11-04T04:07:32;3.40;;;3.30;;
26820;SDS011;37186;51.394;5.454;2022-11-04T04:20:34;3.50;;;3.40;;
26820;SDS011;37186;51.394;5.454;2022-11-04T04:23:37;3.40;;;3.30;;
26820;SDS011;37186;51.394;5.454;2022-11-04T04:27:00;3.60;;;3.50;;
26820;SDS011;37186;51.394;5.454;2022-11-04T04:30:20;3.50;;;3.40;;
26820;SDS011;37186;51.394;5.454;2022-11-04T04:33:21;3.40;;;3.30;;
26820;SDS011;37186;51.394;5.454;2022-11-04T04:36:21;3.30;;;3.20;;
26820;SDS011;37186;51.394;5.454;2022-11-04T04:39:23;3.33;;;3.23;;
26820;SDS011;37186;51.394;5.454;2022-11-04T04:42:46;3.20;;;3.10;;
26820;SDS011;37186;51.394;5.454;2022-11-04T04:46:05;3.63;;;3.53;;
26820;SDS011;37186;51.394;5.454;2022-11-04T04:49:06;3.33;;;3.23;;
26820;SDS011;37186;51.394;5.454;2022-11-04T04:52:08;3.40;;;3.30;;
26820;SDS011;37186;51.394;5.454;2022-11-04T04:55:09;3.50;;;3.40;;
26820;SDS011;37186;51.394;5.454;2022-11-04T04:58:10;3.60;;;3.50;;
26820;SDS011;37186;51.394;5.454;2022-11-04T05:01:11;3.60;;;3.50;;
26820;SDS011;37186;51.394;5.454;2022-11-04T05:04:11;3.50;;;3.40;;
26820;SDS011;37186;51.394;5.454;2022-11-04T05:07:12;3.50;;;3.40;;
26820;SDS011;37186;51.394;5.454;2022-11-04T05:10:13;3.60;;;3.50;;
26820;SDS011;37186;51.394;5.454;2022-11-04T05:13:15;3.60;;;3.50;;
26820;SDS011;37186;51.394;5.454;2022-11-04T05:16:25;3.60;;;3.50;;
26820;SDS011;37186;51.394;5.454;2022-11-04T05:19:25;3.60;;;3.50;;
26820;SDS011;37186;51.394;5.454;2022-11-04T05:22:26;3.57;;;3.47;;
26820;SDS011;37186;51.394;5.454;2022-11-04T05:25:27;3.60;;;3.50;;
26820;SDS011;37186;51.394;5.454;2022-11-04T05:28:27;3.50;;;3.40;;
26820;SDS011;37186;51.394;5.454;2022-11-04T05:31:28;3.60;;;3.50;;
26820;SDS011;37186;51.394;5.454;2022-11-04T05:34:29;3.50;;;3.40;;
26820;SDS011;37186;51.394;5.454;2022-11-04T05:37:30;3.60;;;3.50;;
26820;SDS011;37186;51.394;5.454;2022-11-04T05:40:30;3.50;;;3.40;;
26820;SDS011;37186;51.394;5.454;2022-11-04T05:43:31;3.30;;;3.20;;
26820;SDS011;37186;51.394;5.454;2022-11-04T05:46:32;3.57;;;3.47;;
26820;SDS011;37186;51.394;5.454;2022-11-04T05:49:32;3.60;;;3.50;;
26820;SDS011;37186;51.394;5.454;2022-11-04T05:52:33;3.40;;;3.30;;
26820;SDS011;37186;51.394;5.454;2022-11-04T05:55:33;3.50;;;3.40;;
26820;SDS011;37186;51.394;5.454;2022-11-04T05:58:34;3.40;;;3.30;;
26820;SDS011;37186;51.394;5.454;2022-11-04T06:01:35;3.40;;;3.30;;
26820;SDS011;37186;51.394;5.454;2022-11-04T06:04:40;3.40;;;3.30;;
26820;SDS011;37186;51.394;5.454;2022-11-04T06:07:40;3.47;;;3.37;;
26820;SDS011;37186;51.394;5.454;2022-11-04T06:10:41;3.50;;;3.40;;
26820;SDS011;37186;51.394;5.454;2022-11-04T06:13:42;3.60;;;3.50;;
26820;SDS011;37186;51.394;5.454;2022-11-04T06:16:43;3.60;;;3.50;;
26820;SDS011;37186;51.394;5.454;2022-11-04T06:19:43;3.50;;;3.40;;
26820;SDS011;37186;51.394;5.454;2022-11-04T06:22:44;3.60;;;3.50;;
26820;SDS011;37186;51.394;5.454;2022-11-04T06:25:44;3.60;;;3.50;;
26820;SDS011;37186;51.394;5.454;2022-11-04T06:28:45;3.80;;;3.70;;
26820;SDS011;37186;51.394;5.454;2022-11-04T06:31:45;3.60;;;3.50;;
26820;SDS011;37186;51.394;5.454;2022-11-04T06:34:46;3.40;;;3.30;;
26820;SDS011;37186;51.394;5.454;2022-11-04T06:37:46;3.80;;;3.70;;
26820;SDS011;37186;51.394;5.454;2022-11-04T06:40:47;3.60;;;3.50;;
26820;SDS011;37186;51.394;5.454;2022-11-04T06:43:47;3.83;;;3.73;;
26820;SDS011;37186;51.394;5.454;2022-11-04T06:46:48;3.80;;;3.70;;
26820;SDS011;37186;51.394;5.454;2022-11-04T06:49:48;3.87;;;3.77;;
26820;SDS011;37186;51.394;5.454;2022-11-04T06:52:49;3.63;;;3.53;;
26820;SDS011;37186;51.394;5.454;2022-11-04T06:55:50;3.77;;;3.67;;
26820;SDS011;37186;51.394;5.454;2022-11-04T06:58:52;3.70;;;3.60;;
26820;SDS011;37186;51.394;5.454;2022-11-04T07:01:53;3.83;;;3.73;;
26820;SDS011;37186;51.394;5.454;2022-11-04T07:04:54;3.80;;;3.70;;
26820;SDS011;37186;51.394;5.454;2022-11-04T07:07:54;3.60;;;3.50;;
26820;SDS011;37186;51.394;5.454;2022-11-04T07:10:55;3.70;;;3.60;;
26820;SDS011;37186;51.394;5.454;2022-11-04T07:13:56;3.70;;;3.60;;
26820;SDS011;37186;51.394;5.454;2022-11-04T07:16:57;3.67;;;3.57;;
26820;SDS011;37186;51.394;5.454;2022-11-04T07:19:57;3.70;;;3.60;;
26820;SDS011;37186;51.394;5.454;2022-11-04T07:22:58;3.53;;;3.43;;
26820;SDS011;37186;51.394;5.454;2022-11-04T07:26:01;3.80;;;3.70;;
26820;SDS011;37186;51.394;5.454;2022-11-04T07:29:03;3.50;;;3.40;;
26820;SDS011;37186;51.394;5.454;2022-11-04T07:32:05;3.63;;;3.53;;
26820;SDS011;37186;51.394;5.454;2022-11-04T07:35:06;3.57;;;3.47;;
26820;SDS011;37186;51.394;5.454;2022-11-04T07:38:07;3.50;;;3.40;;
26820;SDS011;37186;51.394;5.454;2022-11-04T07:41:07;3.50;;;3.40;;
26820;SDS011;37186;51.394;5.454;2022-11-04T07:44:11;3.53;;;3.43;;
26820;SDS011;37186;51.394;5.454;2022-11-04T07:47:12;3.40;;;3.30;;
26820;SDS011;37186;51.394;5.454;2022-11-04T07:50:12;3.40;;;3.30;;
26820;SDS011;37186;51.394;5.454;2022-11-04T07:53:13;3.53;;;3.43;;
26820;SDS011;37186;51.394;5.454;2022-11-04T07:56:13;3.40;;;3.30;;
26820;SDS011;37186;51.394;5.454;2022-11-04T07:59:14;3.20;;;3.10;;
26820;SDS011;37186;51.394;5.454;2022-11-04T08:02:14;3.40;;;3.30;;
26820;SDS011;37186;51.394;5.454;2022-11-04T08:05:15;3.30;;;3.20;;
26820;SDS011;37186;51.394;5.454;2022-11-04T08:08:16;3.30;;;3.20;;
26820;SDS011;37186;51.394;5.454;2022-11-04T08:11:17;3.20;;;3.10;;
26820;SDS011;37186;51.394;5.454;2022-11-04T08:14:20;3.40;;;3.30;;
26820;SDS011;37186;51.394;5.454;2022-11-04T08:17:21;3.20;;;3.10;;
26820;SDS011;37186;51.394;5.454;2022-11-04T08:20:21;3.40;;;3.30;;
26820;SDS011;37186;51.394;5.454;2022-11-04T08:23:22;3.40;;;3.30;;
26820;SDS011;37186;51.394;5.454;2022-11-04T08:26:22;3.30;;;3.20;;
26820;SDS011;37186;51.394;5.454;2022-11-04T08:29:23;3.10;;;3.00;;
26820;SDS011;37186;51.394;5.454;2022-11-04T08:32:24;3.37;;;3.27;;
26820;SDS011;37186;51.394;5.454;2022-11-04T08:35:24;3.20;;;3.10;;
26820;SDS011;37186;51.394;5.454;2022-11-04T08:38:25;3.10;;;3.00;;
26820;SDS011;37186;51.394;5.454;2022-11-04T08:41:26;3.30;;;3.20;;
26820;SDS011;37186;51.394;5.454;2022-11-04T08:44:28;3.33;;;3.23;;
26820;SDS011;37186;51.394;5.454;2022-11-04T08:47:28;3.37;;;3.27;;
26820;SDS011;37186;51.394;5.454;2022-11-04T08:50:29;3.47;;;3.37;;
26820;SDS011;37186;51.394;5.454;2022-11-04T08:53:30;3.53;;;3.43;;
26820;SDS011;37186;51.394;5.454;2022-11-04T08:56:31;3.40;;;3.30;;
26820;SDS011;37186;51.394;5.454;2022-11-04T08:59:34;3.37;;;3.27;;
26820;SDS011;37186;51.394;5.454;2022-11-04T09:02:35;3.40;;;3.30;;
26820;SDS011;37186;51.394;5.454;2022-11-04T09:05:36;3.57;;;3.47;;
26820;SDS011;37186;51.394;5.454;2022-11-04T09:08:44;3.50;;;3.40;;
26820;SDS011;37186;51.394;5.454;2022-11-04T09:11:45;3.27;;;3.17;;
26820;SDS011;37186;51.394;5.454;2022-11-04T09:14:46;3.27;;;3.17;;
26820;SDS011;37186;51.394;5.454;2022-11-04T09:17:47;3.20;;;3.10;;
26820;SDS011;37186;51.394;5.454;2022-11-04T09:20:47;3.30;;;3.20;;
26820;SDS011;37186;51.394;5.454;2022-11-04T09:23:48;3.30;;;3.20;;
26820;SDS011;37186;51.394;5.454;2022-11-04T09:26:48;3.40;;;3.30;;
26820;SDS011;37186;51.394;5.454;2022-11-04T09:29:49;3.50;;;3.40;;
26820;SDS011;37186;51.394;5.454;2022-11-04T09:32:49;3.37;;;3.27;;
26820;SDS011;37186;51.394;5.454;2022-11-04T09:35:54;3.50;;;3.40;;
26820;SDS011;37186;51.394;5.454;2022-11-04T09:38:56;3.40;;;3.30;;
26820;SDS011;37186;51.394;5.454;2022-11-04T09:42:06;3.50;;;3.40;;
26820;SDS011;37186;51.394;5.454;2022-11-04T09:45:31;3.10;;;3.00;;
26820;SDS011;37186;51.394;5.454;2022-11-04T09:48:34;3.30;;;3.20;;
26820;SDS011;37186;51.394;5.454;2022-11-04T09:51:41;3.40;;;3.30;;
26820;SDS011;37186;51.394;5.454;2022-11-04T09:58:21;3.30;;;3.20;;
26820;SDS011;37186;51.394;5.454;2022-11-04T10:01:25;3.17;;;3.07;;
26820;SDS011;37186;51.394;5.454;2022-11-04T10:04:45;3.40;;;3.30;;
26820;SDS011;37186;51.394;5.454;2022-11-04T10:11:40;3.10;;;3.00;;
26820;SDS011;37186;51.394;5.454;2022-11-04T10:15:17;3.40;;;3.30;;
26820;SDS011;37186;51.394;5.454;2022-11-04T10:18:42;3.23;;;3.13;;
26820;SDS011;37186;51.394;5.454;2022-11-04T10:22:19;3.40;;;3.30;;
26820;SDS011;37186;51.394;5.454;2022-11-04T10:25:34;3.37;;;3.27;;
26820;SDS011;37186;51.394;5.454;2022-11-04T10:28:41;3.57;;;3.47;;
26820;SDS011;37186;51.394;5.454;2022-11-04T10:31:44;3.60;;;3.50;;
26820;SDS011;37186;51.394;5.454;2022-11-04T10:34:48;3.67;;;3.57;;
26820;SDS011;37186;51.394;5.454;2022-11-04T10:37:54;3.60;;;3.50;;
26820;SDS011;37186;51.394;5.454;2022-11-04T10:40:57;3.50;;;3.40;;
26820;SDS011;37186;51.394;5.454;2022-11-04T10:44:00;3.50;;;3.40;;
26820;SDS011;37186;51.394;5.454;2022-11-04T10:50:58;3.60;;;3.50;;
26820;SDS011;37186;51.394;5.454;2022-11-04T10:53:52;3.60;;;3.50;;
26820;SDS011;37186;51.394;5.454;2022-11-04T10:56:55;3.70;;;3.60;;
26820;SDS011;37186;51.394;5.454;2022-11-04T10:59:57;3.83;;;3.73;;
26820;SDS011;37186;51.394;5.454;2022-11-04T11:02:59;4.00;;;3.90;;
26820;SDS011;37186;51.394;5.454;2022-11-04T11:06:12;3.80;;;3.70;;
26820;SDS011;37186;51.394;5.454;2022-11-04T11:09:23;3.73;;;3.63;;
26820;SDS011;37186;51.394;5.454;2022-11-04T11:12:29;3.77;;;3.67;;
26820;SDS011;37186;51.394;5.454;2022-11-04T11:15:36;3.63;;;3.53;;
26820;SDS011;37186;51.394;5.454;2022-11-04T11:18:38;3.70;;;3.60;;
26820;SDS011;37186;51.394;5.454;2022-11-04T11:21:45;4.07;;;3.97;;
26820;SDS011;37186;51.394;5.454;2022-11-04T11:24:47;4.00;;;3.90;;
26820;SDS011;37186;51.394;5.454;2022-11-04T11:28:09;3.85;;;3.75;;
26820;SDS011;37186;51.394;5.454;2022-11-04T11:31:10;3.87;;;3.77;;
26820;SDS011;37186;51.394;5.454;2022-11-04T11:34:27;3.87;;;3.77;;
26820;SDS011;37186;51.394;5.454;2022-11-04T11:37:32;3.90;;;3.80;;
26820;SDS011;37186;51.394;5.454;2022-11-04T11:40:34;4.00;;;3.90;;
26820;SDS011;37186;51.394;5.454;2022-11-04T11:43:37;3.90;;;3.80;;
26820;SDS011;37186;51.394;5.454;2022-11-04T11:46:48;3.90;;;3.80;;
26820;SDS011;37186;51.394;5.454;2022-11-04T11:50:13;4.20;;;4.10;;
26820;SDS011;37186;51.394;5.454;2022-11-04T11:53:23;4.10;;;4.00;;
26820;SDS011;37186;51.394;5.454;2022-11-04T11:56:36;4.00;;;3.90;;
26820;SDS011;37186;51.394;5.454;2022-11-04T11:59:52;3.93;;;3.83;;
26820;SDS011;37186;51.394;5.454;2022-11-04T12:03:10;3.80;;;3.70;;
26820;SDS011;37186;51.394;5.454;2022-11-04T12:13:14;3.97;;;3.87;;
26820;SDS011;37186;51.394;5.454;2022-11-04T12:16:26;3.97;;;3.87;;
26820;SDS011;37186;51.394;5.454;2022-11-04T12:27:07;4.00;;;3.90;;
26820;SDS011;37186;51.394;5.454;2022-11-04T12:30:13;3.83;;;3.73;;
26820;SDS011;37186;51.394;5.454;2022-11-04T12:33:25;3.87;;;3.77;;
26820;SDS011;37186;51.394;5.454;2022-11-04T12:36:42;3.93;;;3.83;;
26820;SDS011;37186;51.394;5.454;2022-11-04T12:40:06;3.93;;;3.83;;
26820;SDS011;37186;51.394;5.454;2022-11-04T12:49:51;4.15;;;4.05;;
26820;SDS011;37186;51.394;5.454;2022-11-04T12:56:18;3.93;;;3.83;;
26820;SDS011;37186;51.394;5.454;2022-11-04T13:02:49;3.87;;;3.77;;
26820;SDS011;37186;51.394;5.454;2022-11-04T13:05:56;3.70;;;3.60;;
26820;SDS011;37186;51.394;5.454;2022-11-04T13:09:14;3.90;;;3.80;;
26820;SDS011;37186;51.394;5.454;2022-11-04T13:12:35;4.28;;;4.18;;
26820;SDS011;37186;51.394;5.454;2022-11-04T13:15:42;4.17;;;4.07;;
26820;SDS011;37186;51.394;5.454;2022-11-04T13:18:48;4.03;;;3.93;;
26820;SDS011;37186;51.394;5.454;2022-11-04T13:21:50;4.20;;;4.10;;
26820;SDS011;37186;51.394;5.454;2022-11-04T13:24:54;4.15;;;4.05;;
26820;SDS011;37186;51.394;5.454;2022-11-04T13:27:59;3.92;;;3.83;;
26820;SDS011;37186;51.394;5.454;2022-11-04T13:37:22;4.13;;;4.03;;
26820;SDS011;37186;51.394;5.454;2022-11-04T13:44:00;4.07;;;3.97;;
26820;SDS011;37186;51.394;5.454;2022-11-04T13:47:05;4.07;;;3.97;;
26820;SDS011;37186;51.394;5.454;2022-11-04T13:53:47;3.95;;;3.85;;
26820;SDS011;37186;51.394;5.454;2022-11-04T13:56:50;4.13;;;4.03;;
26820;SDS011;37186;51.394;5.454;2022-11-04T14:09:52;4.35;;;4.25;;
26820;SDS011;37186;51.394;5.454;2022-11-04T14:12:53;4.07;;;3.97;;
26820;SDS011;37186;51.394;5.454;2022-11-04T14:19:45;4.32;;;4.22;;
26820;SDS011;37186;51.394;5.454;2022-11-04T14:22:56;4.10;;;4.00;;
26820;SDS011;37186;51.394;5.454;2022-11-04T14:26:00;4.25;;;4.15;;
26820;SDS011;37186;51.394;5.454;2022-11-04T14:29:08;4.13;;;4.03;;
26820;SDS011;37186;51.394;5.454;2022-11-04T14:32:22;4.15;;;4.05;;
26820;SDS011;37186;51.394;5.454;2022-11-04T14:35:26;4.25;;;4.15;;
26820;SDS011;37186;51.394;5.454;2022-11-04T14:38:29;4.18;;;4.07;;
26820;SDS011;37186;51.394;5.454;2022-11-04T14:41:51;4.20;;;4.10;;
26820;SDS011;37186;51.394;5.454;2022-11-04T14:44:52;4.13;;;4.03;;
26820;SDS011;37186;51.394;5.454;2022-11-04T14:47:54;4.32;;;4.22;;
26820;SDS011;37186;51.394;5.454;2022-11-04T14:51:00;4.38;;;4.28;;
26820;SDS011;37186;51.394;5.454;2022-11-04T14:57:20;4.82;;;4.72;;
26820;SDS011;37186;51.394;5.454;2022-11-04T15:03:34;4.33;;;4.23;;
26820;SDS011;37186;51.394;5.454;2022-11-04T15:06:36;4.53;;;4.43;;
26820;SDS011;37186;51.394;5.454;2022-11-04T15:09:40;4.53;;;4.43;;
26820;SDS011;37186;51.394;5.454;2022-11-04T15:12:48;4.20;;;4.10;;
26820;SDS011;37186;51.394;5.454;2022-11-04T15:15:49;4.22;;;4.13;;
26820;SDS011;37186;51.394;5.454;2022-11-04T15:18:53;4.50;;;4.40;;
26820;SDS011;37186;51.394;5.454;2022-11-04T15:21:57;4.40;;;4.30;;
26820;SDS011;37186;51.394;5.454;2022-11-04T15:25:00;4.68;;;4.57;;
26820;SDS011;37186;51.394;5.454;2022-11-04T15:28:05;4.30;;;4.20;;
26820;SDS011;37186;51.394;5.454;2022-11-04T15:31:18;4.40;;;4.30;;
26820;SDS011;37186;51.394;5.454;2022-11-04T15:34:22;4.32;;;4.22;;
26820;SDS011;37186;51.394;5.454;2022-11-04T15:37:25;4.40;;;4.30;;
26820;SDS011;37186;51.394;5.454;2022-11-04T15:40:27;4.38;;;4.28;;
26820;SDS011;37186;51.394;5.454;2022-11-04T15:43:30;4.32;;;4.22;;
26820;SDS011;37186;51.394;5.454;2022-11-04T15:46:32;4.53;;;4.43;;
26820;SDS011;37186;51.394;5.454;2022-11-04T15:49:32;4.30;;;4.20;;
26820;SDS011;37186;51.394;5.454;2022-11-04T15:52:35;4.10;;;4.00;;
26820;SDS011;37186;51.394;5.454;2022-11-04T15:55:36;4.23;;;4.13;;
26820;SDS011;37186;51.394;5.454;2022-11-04T15:58:39;4.05;;;3.95;;
26820;SDS011;37186;51.394;5.454;2022-11-04T16:01:47;4.07;;;3.97;;
26820;SDS011;37186;51.394;5.454;2022-11-04T16:08:18;4.13;;;4.03;;
26820;SDS011;37186;51.394;5.454;2022-11-04T16:11:19;3.83;;;3.72;;
26820;SDS011;37186;51.394;5.454;2022-11-04T16:17:21;4.07;;;3.97;;
26820;SDS011;37186;51.394;5.454;2022-11-04T16:20:23;3.97;;;3.87;;
26820;SDS011;37186;51.394;5.454;2022-11-04T16:23:24;3.73;;;3.63;;
26820;SDS011;37186;51.394;5.454;2022-11-04T16:26:30;3.87;;;3.77;;
26820;SDS011;37186;51.394;5.454;2022-11-04T16:29:36;4.07;;;3.97;;
26820;SDS011;37186;51.394;5.454;2022-11-04T16:33:06;3.80;;;3.70;;
26820;SDS011;37186;51.394;5.454;2022-11-04T16:36:16;3.77;;;3.67;;
26820;SDS011;37186;51.394;5.454;2022-11-04T16:39:23;3.83;;;3.73;;
26820;SDS011;37186;51.394;5.454;2022-11-04T16:42:23;3.73;;;3.63;;
26820;SDS011;37186;51.394;5.454;2022-11-04T16:48:30;3.63;;;3.53;;
26820;SDS011;37186;51.394;5.454;2022-11-04T16:51:30;3.63;;;3.53;;
26820;SDS011;37186;51.394;5.454;2022-11-04T16:54:32;3.77;;;3.67;;
26820;SDS011;37186;51.394;5.454;2022-11-04T16:57:32;3.67;;;3.57;;
26820;SDS011;37186;51.394;5.454;2022-11-04T17:00:33;3.53;;;3.42;;
26820;SDS011;37186;51.394;5.454;2022-11-04T17:03:34;3.63;;;3.53;;
26820;SDS011;37186;51.394;5.454;2022-11-04T17:06:34;3.77;;;3.67;;
26820;SDS011;37186;51.394;5.454;2022-11-04T17:09:35;3.73;;;3.63;;
26820;SDS011;37186;51.394;5.454;2022-11-04T17:12:36;3.77;;;3.67;;
26820;SDS011;37186;51.394;5.454;2022-11-04T17:15:36;3.53;;;3.43;;
26820;SDS011;37186;51.394;5.454;2022-11-04T17:18:37;3.57;;;3.47;;
26820;SDS011;37186;51.394;5.454;2022-11-04T17:21:38;3.73;;;3.63;;
26820;SDS011;37186;51.394;5.454;2022-11-04T17:24:38;3.60;;;3.50;;
26820;SDS011;37186;51.394;5.454;2022-11-04T17:27:39;3.67;;;3.57;;
26820;SDS011;37186;51.394;5.454;2022-11-04T17:30:40;3.50;;;3.40;;
26820;SDS011;37186;51.394;5.454;2022-11-04T17:33:42;3.60;;;3.50;;
26820;SDS011;37186;51.394;5.454;2022-11-04T17:36:42;3.53;;;3.43;;
26820;SDS011;37186;51.394;5.454;2022-11-04T17:39:43;3.37;;;3.27;;
26820;SDS011;37186;51.394;5.454;2022-11-04T17:42:43;3.37;;;3.27;;
26820;SDS011;37186;51.394;5.454;2022-11-04T17:46:03;3.27;;;3.17;;
26820;SDS011;37186;51.394;5.454;2022-11-04T17:49:24;3.43;;;3.33;;
26820;SDS011;37186;51.394;5.454;2022-11-04T17:52:25;3.60;;;3.50;;
26820;SDS011;37186;51.394;5.454;2022-11-04T17:55:25;3.17;;;3.07;;
26820;SDS011;37186;51.394;5.454;2022-11-04T17:58:28;3.30;;;3.20;;
26820;SDS011;37186;51.394;5.454;2022-11-04T18:01:29;3.53;;;3.43;;
26820;SDS011;37186;51.394;5.454;2022-11-04T18:04:31;3.53;;;3.43;;
26820;SDS011;37186;51.394;5.454;2022-11-04T18:07:32;3.67;;;3.57;;
26820;SDS011;37186;51.394;5.454;2022-11-04T18:10:33;3.43;;;3.33;;
26820;SDS011;37186;51.394;5.454;2022-11-04T18:13:34;3.37;;;3.27;;
26820;SDS011;37186;51.394;5.454;2022-11-04T18:16:35;3.57;;;3.47;;
26820;SDS011;37186;51.394;5.454;2022-11-04T18:19:36;3.53;;;3.43;;
26820;SDS011;37186;51.394;5.454;2022-11-04T18:22:36;3.40;;;3.30;;
26820;SDS011;37186;51.394;5.454;2022-11-04T18:25:38;3.57;;;3.47;;
26820;SDS011;37186;51.394;5.454;2022-11-04T18:28:39;3.47;;;3.37;;
26820;SDS011;37186;51.394;5.454;2022-11-04T18:31:39;3.33;;;3.23;;
26820;SDS011;37186;51.394;5.454;2022-11-04T18:34:41;3.37;;;3.27;;
26820;SDS011;37186;51.394;5.454;2022-11-04T18:37:41;3.47;;;3.37;;
26820;SDS011;37186;51.394;5.454;2022-11-04T18:40:42;3.10;;;3.00;;
26820;SDS011;37186;51.394;5.454;2022-11-04T18:43:42;3.33;;;3.23;;
26820;SDS011;37186;51.394;5.454;2022-11-04T18:46:43;3.43;;;3.33;;
26820;SDS011;37186;51.394;5.454;2022-11-04T18:49:45;3.40;;;3.30;;
26820;SDS011;37186;51.394;5.454;2022-11-04T18:52:46;3.40;;;3.30;;
26820;SDS011;37186;51.394;5.454;2022-11-04T18:55:46;3.50;;;3.40;;
26820;SDS011;37186;51.394;5.454;2022-11-04T18:58:47;3.50;;;3.40;;
26820;SDS011;37186;51.394;5.454;2022-11-04T19:01:48;3.33;;;3.23;;
26820;SDS011;37186;51.394;5.454;2022-11-04T19:04:51;3.40;;;3.30;;
26820;SDS011;37186;51.394;5.454;2022-11-04T19:07:52;3.50;;;3.40;;
26820;SDS011;37186;51.394;5.454;2022-11-04T19:10:52;3.50;;;3.40;;
26820;SDS011;37186;51.394;5.454;2022-11-04T19:13:55;3.30;;;3.20;;
26820;SDS011;37186;51.394;5.454;2022-11-04T19:16:58;3.50;;;3.40;;
26820;SDS011;37186;51.394;5.454;2022-11-04T19:19:58;3.70;;;3.60;;
26820;SDS011;37186;51.394;5.454;2022-11-04T19:22:59;3.60;;;3.50;;
26820;SDS011;37186;51.394;5.454;2022-11-04T19:26:19;3.53;;;3.43;;
26820;SDS011;37186;51.394;5.454;2022-11-04T19:29:21;3.33;;;3.23;;
26820;SDS011;37186;51.394;5.454;2022-11-04T19:32:22;3.43;;;3.33;;
26820;SDS011;37186;51.394;5.454;2022-11-04T19:35:23;3.60;;;3.50;;
26820;SDS011;37186;51.394;5.454;2022-11-04T19:38:24;3.50;;;3.40;;
26820;SDS011;37186;51.394;5.454;2022-11-04T19:41:25;3.33;;;3.23;;
26820;SDS011;37186;51.394;5.454;2022-11-04T19:44:45;3.43;;;3.33;;
26820;SDS011;37186;51.394;5.454;2022-11-04T19:47:45;3.57;;;3.47;;
26820;SDS011;37186;51.394;5.454;2022-11-04T19:50:47;3.70;;;3.60;;
26820;SDS011;37186;51.394;5.454;2022-11-04T19:53:48;3.47;;;3.37;;
26820;SDS011;37186;51.394;5.454;2022-11-04T19:56:49;3.50;;;3.40;;
26820;SDS011;37186;51.394;5.454;2022-11-04T19:59:49;3.40;;;3.30;;
26820;SDS011;37186;51.394;5.454;2022-11-04T20:02:51;3.40;;;3.30;;
26820;SDS011;37186;51.394;5.454;2022-11-04T20:05:51;3.60;;;3.50;;
26820;SDS011;37186;51.394;5.454;2022-11-04T20:08:52;3.40;;;3.30;;
26820;SDS011;37186;51.394;5.454;2022-11-04T20:11:52;3.40;;;3.30;;
26820;SDS011;37186;51.394;5.454;2022-11-04T20:15:11;3.63;;;3.53;;
26820;SDS011;37186;51.394;5.454;2022-11-04T20:18:12;3.40;;;3.30;;
26820;SDS011;37186;51.394;5.454;2022-11-04T20:21:13;3.30;;;3.20;;
26820;SDS011;37186;51.394;5.454;2022-11-04T20:24:14;3.30;;;3.20;;
26820;SDS011;37186;51.394;5.454;2022-11-04T20:27:14;3.40;;;3.30;;
26820;SDS011;37186;51.394;5.454;2022-11-04T20:30:15;3.33;;;3.23;;
26820;SDS011;37186;51.394;5.454;2022-11-04T20:33:16;3.23;;;3.13;;